sensor_id;sensor_type;location;lat;lon;timestamp;pressure;altitude;pressure_sealevel;temperature;humidity
17521;BME280;8878;-33.370;-70.552;2023-11-19T00:01:09;92262.63;;;17.28;66.35
17521;BME280;8878;-33.370;-70.552;2023-11-19T00:03:40;92259.00;;;17.23;67.72
17521;BME280;8878;-33.370;-70.552;2023-11-19T00:06:11;92267.44;;;17.17;68.11
17521;BME280;8878;-33.370;-70.552;2023-11-19T00:08:39;92269.09;;;17.13;68.46
17521;BME280;8878;-33.370;-70.552;2023-11-19T00:11:08;92272.88;;;17.12;70.50
17521;BME280;8878;-33.370;-70.552;2023-11-19T00:13:38;92272.03;;;17.03;66.65
17521;BME280;8878;-33.370;-70.552;2023-11-19T00:16:08;92281.28;;;17.05;67.76
17521;BME280;8878;-33.370;-70.552;2023-11-19T00:18:40;92276.28;;;17.04;68.09
17521;BME280;8878;-33.370;-70.552;2023-11-19T00:21:10;92281.66;;;16.90;68.60
17521;BME280;8878;-33.370;-70.552;2023-11-19T00:23:39;92271.78;;;16.77;67.95
17521;BME280;8878;-33.370;-70.552;2023-11-19T00:26:09;92272.69;;;16.72;67.52
17521;BME280;8878;-33.370;-70.552;2023-11-19T00:28:38;92279.78;;;16.77;68.92
17521;BME280;8878;-33.370;-70.552;2023-11-19T00:31:07;92276.66;;;16.75;70.14
17521;BME280;8878;-33.370;-70.552;2023-11-19T00:33:37;92286.00;;;16.72;71.65
17521;BME280;8878;-33.370;-70.552;2023-11-19T00:36:09;92284.44;;;16.71;72.24
17521;BME280;8878;-33.370;-70.552;2023-11-19T00:38:39;92291.47;;;16.67;71.45
17521;BME280;8878;-33.370;-70.552;2023-11-19T00:41:09;92284.94;;;16.60;73.68
17521;BME280;8878;-33.370;-70.552;2023-11-19T00:43:38;92284.53;;;16.53;74.46
17521;BME280;8878;-33.370;-70.552;2023-11-19T00:46:08;92288.41;;;16.47;74.63
17521;BME280;8878;-33.370;-70.552;2023-11-19T00:48:38;92282.06;;;16.42;72.95
17521;BME280;8878;-33.370;-70.552;2023-11-19T00:51:12;92280.22;;;16.43;74.92
17521;BME280;8878;-33.370;-70.552;2023-11-19T00:53:43;92293.34;;;16.39;75.58
17521;BME280;8878;-33.370;-70.552;2023-11-19T00:56:14;92287.72;;;16.27;78.10
17521;BME280;8878;-33.370;-70.552;2023-11-19T00:58:44;92283.19;;;16.14;79.99
17521;BME280;8878;-33.370;-70.552;2023-11-19T01:01:17;92291.94;;;16.01;78.71
17521;BME280;8878;-33.370;-70.552;2023-11-19T01:03:47;92297.38;;;15.96;76.94
17521;BME280;8878;-33.370;-70.552;2023-11-19T01:06:27;92285.38;;;15.98;74.28
17521;BME280;8878;-33.370;-70.552;2023-11-19T01:08:57;92278.06;;;15.90;73.39
17521;BME280;8878;-33.370;-70.552;2023-11-19T01:11:27;92276.47;;;15.76;71.96
17521;BME280;8878;-33.370;-70.552;2023-11-19T01:13:56;92276.53;;;15.71;75.52
17521;BME280;8878;-33.370;-70.552;2023-11-19T01:16:27;92287.88;;;15.62;76.33
17521;BME280;8878;-33.370;-70.552;2023-11-19T01:18:56;92289.09;;;15.51;77.51
17521;BME280;8878;-33.370;-70.552;2023-11-19T01:21:29;92293.19;;;15.44;79.49
17521;BME280;8878;-33.370;-70.552;2023-11-19T01:23:58;92301.03;;;15.35;79.88
17521;BME280;8878;-33.370;-70.552;2023-11-19T01:26:29;92299.72;;;15.19;81.68
17521;BME280;8878;-33.370;-70.552;2023-11-19T01:28:59;92290.03;;;15.09;82.91
17521;BME280;8878;-33.370;-70.552;2023-11-19T01:31:28;92308.13;;;15.07;82.32
17521;BME280;8878;-33.370;-70.552;2023-11-19T01:33:58;92309.44;;;15.10;81.35
17521;BME280;8878;-33.370;-70.552;2023-11-19T01:36:29;92310.78;;;15.07;82.79
17521;BME280;8878;-33.370;-70.552;2023-11-19T01:38:59;92319.13;;;15.01;82.83
17521;BME280;8878;-33.370;-70.552;2023-11-19T01:41:28;92316.47;;;15.01;82.39
17521;BME280;8878;-33.370;-70.552;2023-11-19T01:43:57;92314.59;;;15.01;81.12
17521;BME280;8878;-33.370;-70.552;2023-11-19T01:46:27;92316.53;;;14.96;81.60
17521;BME280;8878;-33.370;-70.552;2023-11-19T01:48:56;92302.91;;;14.83;82.39
17521;BME280;8878;-33.370;-70.552;2023-11-19T01:51:28;92303.28;;;14.77;82.13
17521;BME280;8878;-33.370;-70.552;2023-11-19T01:53:58;92302.47;;;14.76;81.38
17521;BME280;8878;-33.370;-70.552;2023-11-19T01:56:28;92304.84;;;14.78;82.13
17521;BME280;8878;-33.370;-70.552;2023-11-19T01:58:58;92310.22;;;14.73;83.41
17521;BME280;8878;-33.370;-70.552;2023-11-19T02:01:28;92307.63;;;14.68;83.27
17521;BME280;8878;-33.370;-70.552;2023-11-19T02:03:59;92310.94;;;14.60;87.10
17521;BME280;8878;-33.370;-70.552;2023-11-19T02:06:33;92317.75;;;14.47;87.56
17521;BME280;8878;-33.370;-70.552;2023-11-19T02:09:03;92309.34;;;14.40;88.60
17521;BME280;8878;-33.370;-70.552;2023-11-19T02:11:35;92310.13;;;14.40;88.25
17521;BME280;8878;-33.370;-70.552;2023-11-19T02:14:05;92318.28;;;14.44;89.37
17521;BME280;8878;-33.370;-70.552;2023-11-19T02:16:34;92310.59;;;14.42;89.63
17521;BME280;8878;-33.370;-70.552;2023-11-19T02:19:03;92321.84;;;14.34;88.70
17521;BME280;8878;-33.370;-70.552;2023-11-19T02:21:35;92313.66;;;14.31;88.73
17521;BME280;8878;-33.370;-70.552;2023-11-19T02:24:07;92305.94;;;14.34;89.06
17521;BME280;8878;-33.370;-70.552;2023-11-19T02:26:40;92302.47;;;14.34;90.03
17521;BME280;8878;-33.370;-70.552;2023-11-19T02:29:14;92300.97;;;14.28;91.91
17521;BME280;8878;-33.370;-70.552;2023-11-19T02:31:44;92301.81;;;14.23;91.97
17521;BME280;8878;-33.370;-70.552;2023-11-19T02:34:13;92312.69;;;14.22;92.54
17521;BME280;8878;-33.370;-70.552;2023-11-19T02:36:43;92305.84;;;14.21;92.66
17521;BME280;8878;-33.370;-70.552;2023-11-19T02:39:14;92292.06;;;14.19;92.24
17521;BME280;8878;-33.370;-70.552;2023-11-19T02:41:48;92293.75;;;14.09;93.22
17521;BME280;8878;-33.370;-70.552;2023-11-19T02:44:21;92286.63;;;14.05;92.12
17521;BME280;8878;-33.370;-70.552;2023-11-19T02:46:50;92285.06;;;14.04;91.45
17521;BME280;8878;-33.370;-70.552;2023-11-19T02:49:20;92284.66;;;13.92;92.16
17521;BME280;8878;-33.370;-70.552;2023-11-19T02:51:49;92288.44;;;13.86;92.30
17521;BME280;8878;-33.370;-70.552;2023-11-19T02:54:18;92276.25;;;13.85;92.20
17521;BME280;8878;-33.370;-70.552;2023-11-19T02:56:53;92279.13;;;13.88;91.56
17521;BME280;8878;-33.370;-70.552;2023-11-19T02:59:28;92277.25;;;13.89;91.46
17521;BME280;8878;-33.370;-70.552;2023-11-19T03:02:05;92276.81;;;13.82;89.76
17521;BME280;8878;-33.370;-70.552;2023-11-19T03:04:38;92280.25;;;13.82;89.81
17521;BME280;8878;-33.370;-70.552;2023-11-19T03:07:09;92273.88;;;13.83;88.41
17521;BME280;8878;-33.370;-70.552;2023-11-19T03:09:39;92267.00;;;13.82;88.91
17521;BME280;8878;-33.370;-70.552;2023-11-19T03:12:10;92277.78;;;13.91;87.63
17521;BME280;8878;-33.370;-70.552;2023-11-19T03:14:41;92278.13;;;13.84;86.72
17521;BME280;8878;-33.370;-70.552;2023-11-19T03:17:11;92266.53;;;13.75;86.58
17521;BME280;8878;-33.370;-70.552;2023-11-19T03:19:41;92276.03;;;13.81;88.07
17521;BME280;8878;-33.370;-70.552;2023-11-19T03:22:10;92273.28;;;13.91;89.67
17521;BME280;8878;-33.370;-70.552;2023-11-19T03:24:40;92275.91;;;13.91;86.32
17521;BME280;8878;-33.370;-70.552;2023-11-19T03:27:09;92275.63;;;13.93;84.77
17521;BME280;8878;-33.370;-70.552;2023-11-19T03:29:40;92264.28;;;13.87;85.79
17521;BME280;8878;-33.370;-70.552;2023-11-19T03:32:10;92267.56;;;13.79;84.58
17521;BME280;8878;-33.370;-70.552;2023-11-19T03:34:40;92270.78;;;13.76;87.09
17521;BME280;8878;-33.370;-70.552;2023-11-19T03:37:09;92271.75;;;13.85;84.35
17521;BME280;8878;-33.370;-70.552;2023-11-19T03:39:39;92264.25;;;13.92;88.05
17521;BME280;8878;-33.370;-70.552;2023-11-19T03:42:09;92263.72;;;13.90;90.79
17521;BME280;8878;-33.370;-70.552;2023-11-19T03:44:41;92268.00;;;13.86;92.16
17521;BME280;8878;-33.370;-70.552;2023-11-19T03:47:11;92267.06;;;13.77;91.15
17521;BME280;8878;-33.370;-70.552;2023-11-19T03:49:40;92253.84;;;13.72;95.48
17521;BME280;8878;-33.370;-70.552;2023-11-19T03:52:10;92251.78;;;13.69;98.87
17521;BME280;8878;-33.370;-70.552;2023-11-19T03:54:40;92259.81;;;13.59;98.22
17521;BME280;8878;-33.370;-70.552;2023-11-19T03:57:09;92250.13;;;13.49;99.38
17521;BME280;8878;-33.370;-70.552;2023-11-19T03:59:40;92259.97;;;13.44;97.64
17521;BME280;8878;-33.370;-70.552;2023-11-19T04:02:10;92254.66;;;13.44;95.67
17521;BME280;8878;-33.370;-70.552;2023-11-19T04:04:40;92246.22;;;13.42;96.73
17521;BME280;8878;-33.370;-70.552;2023-11-19T04:07:09;92241.47;;;13.39;98.87
17521;BME280;8878;-33.370;-70.552;2023-11-19T04:09:39;92244.69;;;13.36;98.07
17521;BME280;8878;-33.370;-70.552;2023-11-19T04:12:09;92243.94;;;13.30;96.48
17521;BME280;8878;-33.370;-70.552;2023-11-19T04:14:40;92228.34;;;13.28;96.04
17521;BME280;8878;-33.370;-70.552;2023-11-19T04:17:09;92235.84;;;13.16;91.07
17521;BME280;8878;-33.370;-70.552;2023-11-19T04:19:39;92228.41;;;13.18;93.09
17521;BME280;8878;-33.370;-70.552;2023-11-19T04:22:09;92223.41;;;13.17;92.83
17521;BME280;8878;-33.370;-70.552;2023-11-19T04:24:39;92210.56;;;13.00;90.77
17521;BME280;8878;-33.370;-70.552;2023-11-19T04:27:10;92204.75;;;12.93;91.11
17521;BME280;8878;-33.370;-70.552;2023-11-19T04:29:42;92211.16;;;12.92;88.64
17521;BME280;8878;-33.370;-70.552;2023-11-19T04:32:13;92212.72;;;12.93;87.75
17521;BME280;8878;-33.370;-70.552;2023-11-19T04:34:43;92204.47;;;13.00;91.79
17521;BME280;8878;-33.370;-70.552;2023-11-19T04:37:12;92197.31;;;13.00;94.20
17521;BME280;8878;-33.370;-70.552;2023-11-19T04:39:41;92193.88;;;13.00;95.96
17521;BME280;8878;-33.370;-70.552;2023-11-19T04:42:13;92193.09;;;12.99;96.25
17521;BME280;8878;-33.370;-70.552;2023-11-19T04:44:45;92190.97;;;12.96;93.81
17521;BME280;8878;-33.370;-70.552;2023-11-19T04:47:15;92192.63;;;12.92;94.43
17521;BME280;8878;-33.370;-70.552;2023-11-19T04:49:44;92196.13;;;12.82;90.99
17521;BME280;8878;-33.370;-70.552;2023-11-19T04:52:13;92194.53;;;12.81;90.27
17521;BME280;8878;-33.370;-70.552;2023-11-19T04:54:43;92194.00;;;12.84;88.63
17521;BME280;8878;-33.370;-70.552;2023-11-19T04:57:12;92189.38;;;13.00;87.58
17521;BME280;8878;-33.370;-70.552;2023-11-19T04:59:41;92185.34;;;13.03;90.09
17521;BME280;8878;-33.370;-70.552;2023-11-19T05:02:13;92180.44;;;12.91;89.72
17521;BME280;8878;-33.370;-70.552;2023-11-19T05:04:43;92182.63;;;12.84;91.67
17521;BME280;8878;-33.370;-70.552;2023-11-19T05:07:13;92180.25;;;12.82;96.83
17521;BME280;8878;-33.370;-70.552;2023-11-19T05:09:43;92176.59;;;12.73;99.03
17521;BME280;8878;-33.370;-70.552;2023-11-19T05:12:12;92172.94;;;12.69;99.02
17521;BME280;8878;-33.370;-70.552;2023-11-19T05:14:41;92178.78;;;12.66;97.84
17521;BME280;8878;-33.370;-70.552;2023-11-19T05:17:17;92175.38;;;12.61;99.67
17521;BME280;8878;-33.370;-70.552;2023-11-19T05:19:47;92170.16;;;12.55;97.98
17521;BME280;8878;-33.370;-70.552;2023-11-19T05:22:16;92177.56;;;12.53;97.47
17521;BME280;8878;-33.370;-70.552;2023-11-19T05:24:47;92172.28;;;12.53;97.41
17521;BME280;8878;-33.370;-70.552;2023-11-19T05:27:17;92174.91;;;12.53;97.60
17521;BME280;8878;-33.370;-70.552;2023-11-19T05:29:46;92174.38;;;12.57;95.97
17521;BME280;8878;-33.370;-70.552;2023-11-19T05:32:17;92166.97;;;12.53;96.31
17521;BME280;8878;-33.370;-70.552;2023-11-19T05:34:46;92165.91;;;12.54;96.25
17521;BME280;8878;-33.370;-70.552;2023-11-19T05:37:16;92159.28;;;12.57;96.02
17521;BME280;8878;-33.370;-70.552;2023-11-19T05:39:46;92159.31;;;12.52;96.69
17521;BME280;8878;-33.370;-70.552;2023-11-19T05:42:15;92163.06;;;12.46;97.44
17521;BME280;8878;-33.370;-70.552;2023-11-19T05:44:44;92156.47;;;12.43;98.32
17521;BME280;8878;-33.370;-70.552;2023-11-19T05:47:13;92150.16;;;12.39;99.10
17521;BME280;8878;-33.370;-70.552;2023-11-19T05:49:45;92148.56;;;12.38;98.69
17521;BME280;8878;-33.370;-70.552;2023-11-19T05:52:14;92151.47;;;12.42;96.66
17521;BME280;8878;-33.370;-70.552;2023-11-19T05:54:43;92160.66;;;12.49;98.96
17521;BME280;8878;-33.370;-70.552;2023-11-19T05:57:14;92159.59;;;12.50;99.95
17521;BME280;8878;-33.370;-70.552;2023-11-19T05:59:47;92166.03;;;12.39;100.00
17521;BME280;8878;-33.370;-70.552;2023-11-19T06:02:16;92165.06;;;12.25;100.00
17521;BME280;8878;-33.370;-70.552;2023-11-19T06:04:47;92158.19;;;12.24;100.00
17521;BME280;8878;-33.370;-70.552;2023-11-19T06:07:16;92164.84;;;12.22;100.00
17521;BME280;8878;-33.370;-70.552;2023-11-19T06:09:46;92159.06;;;12.14;100.00
17521;BME280;8878;-33.370;-70.552;2023-11-19T06:12:16;92156.69;;;12.13;100.00
17521;BME280;8878;-33.370;-70.552;2023-11-19T06:14:45;92149.25;;;12.15;100.00
17521;BME280;8878;-33.370;-70.552;2023-11-19T06:17:14;92145.06;;;12.14;100.00
17521;BME280;8878;-33.370;-70.552;2023-11-19T06:19:44;92149.59;;;12.03;100.00
17521;BME280;8878;-33.370;-70.552;2023-11-19T06:22:15;92148.84;;;11.98;100.00
17521;BME280;8878;-33.370;-70.552;2023-11-19T06:24:44;92137.78;;;11.91;100.00
17521;BME280;8878;-33.370;-70.552;2023-11-19T06:27:14;92141.25;;;11.86;100.00
17521;BME280;8878;-33.370;-70.552;2023-11-19T06:29:43;92143.63;;;11.88;100.00
17521;BME280;8878;-33.370;-70.552;2023-11-19T06:32:13;92134.06;;;11.97;100.00
17521;BME280;8878;-33.370;-70.552;2023-11-19T06:34:42;92138.53;;;11.96;99.43
17521;BME280;8878;-33.370;-70.552;2023-11-19T06:37:12;92137.47;;;11.97;99.49
17521;BME280;8878;-33.370;-70.552;2023-11-19T06:39:43;92126.66;;;11.94;100.00
17521;BME280;8878;-33.370;-70.552;2023-11-19T06:42:12;92116.91;;;11.89;98.20
17521;BME280;8878;-33.370;-70.552;2023-11-19T06:44:41;92121.44;;;11.84;97.35
17521;BME280;8878;-33.370;-70.552;2023-11-19T06:47:11;92118.75;;;11.89;99.22
17521;BME280;8878;-33.370;-70.552;2023-11-19T06:49:40;92111.88;;;11.88;98.34
17521;BME280;8878;-33.370;-70.552;2023-11-19T06:52:09;92104.31;;;11.76;98.76
17521;BME280;8878;-33.370;-70.552;2023-11-19T06:54:39;92102.47;;;11.71;97.50
17521;BME280;8878;-33.370;-70.552;2023-11-19T06:57:10;92104.53;;;11.80;96.66
17521;BME280;8878;-33.370;-70.552;2023-11-19T06:59:39;92097.97;;;11.77;95.50
17521;BME280;8878;-33.370;-70.552;2023-11-19T07:02:08;92108.25;;;11.79;93.32
17521;BME280;8878;-33.370;-70.552;2023-11-19T07:04:38;92114.25;;;11.89;93.81
17521;BME280;8878;-33.370;-70.552;2023-11-19T07:07:07;92113.03;;;11.76;96.08
17521;BME280;8878;-33.370;-70.552;2023-11-19T07:09:37;92104.81;;;11.73;96.33
17521;BME280;8878;-33.370;-70.552;2023-11-19T07:12:07;92110.38;;;11.71;94.37
17521;BME280;8878;-33.370;-70.552;2023-11-19T07:14:38;92111.75;;;11.64;95.22
17521;BME280;8878;-33.370;-70.552;2023-11-19T07:17:08;92110.47;;;11.56;95.04
17521;BME280;8878;-33.370;-70.552;2023-11-19T07:19:38;92099.38;;;11.54;96.62
17521;BME280;8878;-33.370;-70.552;2023-11-19T07:22:07;92100.34;;;11.68;94.77
17521;BME280;8878;-33.370;-70.552;2023-11-19T07:24:40;92106.16;;;11.75;96.42
17521;BME280;8878;-33.370;-70.552;2023-11-19T07:27:09;92099.81;;;11.76;98.07
17521;BME280;8878;-33.370;-70.552;2023-11-19T07:29:43;92105.63;;;11.68;98.24
17521;BME280;8878;-33.370;-70.552;2023-11-19T07:32:13;92116.25;;;11.58;97.26
17521;BME280;8878;-33.370;-70.552;2023-11-19T07:34:42;92114.16;;;11.55;98.07
17521;BME280;8878;-33.370;-70.552;2023-11-19T07:37:14;92114.69;;;11.52;100.00
17521;BME280;8878;-33.370;-70.552;2023-11-19T07:39:43;92109.97;;;11.49;100.00
17521;BME280;8878;-33.370;-70.552;2023-11-19T07:42:13;92111.31;;;11.47;100.00
17521;BME280;8878;-33.370;-70.552;2023-11-19T07:44:44;92105.28;;;11.36;99.78
17521;BME280;8878;-33.370;-70.552;2023-11-19T07:47:13;92103.66;;;11.40;100.00
17521;BME280;8878;-33.370;-70.552;2023-11-19T07:49:42;92107.94;;;11.36;100.00
17521;BME280;8878;-33.370;-70.552;2023-11-19T07:52:12;92101.06;;;11.35;100.00
17521;BME280;8878;-33.370;-70.552;2023-11-19T07:54:41;92101.81;;;11.41;100.00
17521;BME280;8878;-33.370;-70.552;2023-11-19T07:57:11;92108.13;;;11.45;100.00
17521;BME280;8878;-33.370;-70.552;2023-11-19T07:59:41;92098.72;;;11.28;100.00
17521;BME280;8878;-33.370;-70.552;2023-11-19T08:02:12;92094.69;;;11.41;100.00
17521;BME280;8878;-33.370;-70.552;2023-11-19T08:04:41;92096.50;;;11.51;100.00
17521;BME280;8878;-33.370;-70.552;2023-11-19T08:07:12;92099.63;;;11.53;100.00
17521;BME280;8878;-33.370;-70.552;2023-11-19T08:09:41;92096.19;;;11.57;100.00
17521;BME280;8878;-33.370;-70.552;2023-11-19T08:12:12;92088.00;;;11.54;99.06
17521;BME280;8878;-33.370;-70.552;2023-11-19T08:14:43;92091.19;;;11.56;99.93
17521;BME280;8878;-33.370;-70.552;2023-11-19T08:17:14;92096.19;;;11.57;100.00
17521;BME280;8878;-33.370;-70.552;2023-11-19T08:19:44;92092.47;;;11.58;100.00
17521;BME280;8878;-33.370;-70.552;2023-11-19T08:22:14;92097.22;;;11.61;99.62
17521;BME280;8878;-33.370;-70.552;2023-11-19T08:24:43;92102.78;;;11.65;99.54
17521;BME280;8878;-33.370;-70.552;2023-11-19T08:27:12;92100.38;;;11.63;96.92
17521;BME280;8878;-33.370;-70.552;2023-11-19T08:29:42;92095.13;;;11.58;95.30
17521;BME280;8878;-33.370;-70.552;2023-11-19T08:32:11;92098.53;;;11.64;96.28
17521;BME280;8878;-33.370;-70.552;2023-11-19T08:34:42;92093.47;;;11.67;100.00
17521;BME280;8878;-33.370;-70.552;2023-11-19T08:37:11;92094.53;;;11.66;100.00
17521;BME280;8878;-33.370;-70.552;2023-11-19T08:39:41;92094.03;;;11.64;99.70
17521;BME280;8878;-33.370;-70.552;2023-11-19T08:42:10;92087.19;;;11.63;100.00
17521;BME280;8878;-33.370;-70.552;2023-11-19T08:44:40;92088.78;;;11.59;100.00
17521;BME280;8878;-33.370;-70.552;2023-11-19T08:47:12;92095.72;;;11.50;100.00
17521;BME280;8878;-33.370;-70.552;2023-11-19T08:49:44;92091.50;;;11.44;100.00
17521;BME280;8878;-33.370;-70.552;2023-11-19T08:52:14;92088.34;;;11.42;100.00
17521;BME280;8878;-33.370;-70.552;2023-11-19T08:54:44;92092.03;;;11.41;100.00
17521;BME280;8878;-33.370;-70.552;2023-11-19T08:57:13;92090.22;;;11.36;100.00
17521;BME280;8878;-33.370;-70.552;2023-11-19T08:59:43;92088.69;;;11.25;100.00
17521;BME280;8878;-33.370;-70.552;2023-11-19T09:02:12;92085.81;;;11.17;100.00
17521;BME280;8878;-33.370;-70.552;2023-11-19T09:04:44;92090.00;;;11.23;100.00
17521;BME280;8878;-33.370;-70.552;2023-11-19T09:07:14;92092.13;;;11.16;99.53
17521;BME280;8878;-33.370;-70.552;2023-11-19T09:09:43;92084.75;;;11.18;100.00
17521;BME280;8878;-33.370;-70.552;2023-11-19T09:12:12;92082.09;;;11.18;98.90
17521;BME280;8878;-33.370;-70.552;2023-11-19T09:14:42;92088.19;;;11.18;93.89
17521;BME280;8878;-33.370;-70.552;2023-11-19T09:17:12;92081.03;;;11.29;92.82
17521;BME280;8878;-33.370;-70.552;2023-11-19T09:19:43;92078.38;;;11.29;92.98
17521;BME280;8878;-33.370;-70.552;2023-11-19T09:22:13;92087.84;;;11.30;92.65
17521;BME280;8878;-33.370;-70.552;2023-11-19T09:24:43;92091.28;;;11.35;91.58
17521;BME280;8878;-33.370;-70.552;2023-11-19T09:27:12;92087.78;;;11.45;94.34
17521;BME280;8878;-33.370;-70.552;2023-11-19T09:29:42;92086.50;;;11.43;91.61
17521;BME280;8878;-33.370;-70.552;2023-11-19T09:32:13;92090.94;;;11.47;90.53
17521;BME280;8878;-33.370;-70.552;2023-11-19T09:34:44;92083.00;;;11.57;94.14
17521;BME280;8878;-33.370;-70.552;2023-11-19T09:37:13;92084.06;;;11.51;98.65
17521;BME280;8878;-33.370;-70.552;2023-11-19T09:39:43;92086.19;;;11.44;99.03
17521;BME280;8878;-33.370;-70.552;2023-11-19T09:42:13;92087.06;;;11.34;100.00
17521;BME280;8878;-33.370;-70.552;2023-11-19T09:44:43;92086.03;;;11.25;100.00
17521;BME280;8878;-33.370;-70.552;2023-11-19T09:47:14;92090.28;;;11.21;100.00
17521;BME280;8878;-33.370;-70.552;2023-11-19T09:49:49;92099.25;;;11.25;100.00
17521;BME280;8878;-33.370;-70.552;2023-11-19T09:52:20;92088.41;;;11.27;100.00
17521;BME280;8878;-33.370;-70.552;2023-11-19T09:54:51;92097.91;;;11.28;100.00
17521;BME280;8878;-33.370;-70.552;2023-11-19T09:57:20;92092.38;;;11.29;99.92
17521;BME280;8878;-33.370;-70.552;2023-11-19T09:59:50;92085.97;;;11.41;98.10
17521;BME280;8878;-33.370;-70.552;2023-11-19T10:02:21;92084.88;;;11.47;99.81
17521;BME280;8878;-33.370;-70.552;2023-11-19T10:04:53;92086.75;;;11.41;100.00
17521;BME280;8878;-33.370;-70.552;2023-11-19T10:07:23;92089.94;;;11.38;100.00
17521;BME280;8878;-33.370;-70.552;2023-11-19T10:09:54;92089.66;;;11.39;100.00
17521;BME280;8878;-33.370;-70.552;2023-11-19T10:12:23;92099.41;;;11.44;100.00
17521;BME280;8878;-33.370;-70.552;2023-11-19T10:14:54;92104.69;;;11.49;99.84
17521;BME280;8878;-33.370;-70.552;2023-11-19T10:17:28;92099.38;;;11.54;99.15
17521;BME280;8878;-33.370;-70.552;2023-11-19T10:19:59;92098.25;;;11.65;97.16
17521;BME280;8878;-33.370;-70.552;2023-11-19T10:22:31;92098.22;;;11.75;97.36
17521;BME280;8878;-33.370;-70.552;2023-11-19T10:25:22;92096.34;;;11.81;97.83
17521;BME280;8878;-33.370;-70.552;2023-11-19T10:27:53;92097.09;;;11.87;92.90
17521;BME280;8878;-33.370;-70.552;2023-11-19T10:30:24;92104.69;;;11.98;94.65
17521;BME280;8878;-33.370;-70.552;2023-11-19T10:33:08;92099.63;;;12.07;94.17
17521;BME280;8878;-33.370;-70.552;2023-11-19T10:35:54;92099.47;;;12.22;92.79
17521;BME280;8878;-33.370;-70.552;2023-11-19T10:38:25;92094.53;;;12.44;91.41
17521;BME280;8878;-33.370;-70.552;2023-11-19T10:40:54;92103.34;;;12.69;88.42
17521;BME280;8878;-33.370;-70.552;2023-11-19T10:43:26;92105.72;;;12.94;86.99
17521;BME280;8878;-33.370;-70.552;2023-11-19T10:46:09;92113.38;;;13.24;84.11
17521;BME280;8878;-33.370;-70.552;2023-11-19T10:48:39;92116.31;;;13.47;81.97
17521;BME280;8878;-33.370;-70.552;2023-11-19T10:51:11;92122.94;;;13.68;79.20
17521;BME280;8878;-33.370;-70.552;2023-11-19T10:53:46;92133.41;;;13.78;77.04
17521;BME280;8878;-33.370;-70.552;2023-11-19T10:56:17;92133.84;;;13.85;76.71
17521;BME280;8878;-33.370;-70.552;2023-11-19T10:58:51;92131.31;;;13.94;76.59
17521;BME280;8878;-33.370;-70.552;2023-11-19T11:01:24;92134.13;;;14.02;75.21
17521;BME280;8878;-33.370;-70.552;2023-11-19T11:04:00;92129.25;;;14.09;75.38
17521;BME280;8878;-33.370;-70.552;2023-11-19T11:06:34;92131.28;;;14.18;73.92
17521;BME280;8878;-33.370;-70.552;2023-11-19T11:09:04;92132.50;;;14.25;73.96
17521;BME280;8878;-33.370;-70.552;2023-11-19T11:11:39;92140.88;;;14.32;74.57
17521;BME280;8878;-33.370;-70.552;2023-11-19T11:14:13;92143.97;;;14.39;73.99
17521;BME280;8878;-33.370;-70.552;2023-11-19T11:16:44;92143.63;;;14.46;73.88
17521;BME280;8878;-33.370;-70.552;2023-11-19T11:19:13;92142.47;;;14.52;71.55
17521;BME280;8878;-33.370;-70.552;2023-11-19T11:21:51;92142.88;;;14.59;70.66
17521;BME280;8878;-33.370;-70.552;2023-11-19T11:24:38;92143.88;;;14.63;69.96
17521;BME280;8878;-33.370;-70.552;2023-11-19T11:30:29;92143.34;;;14.80;65.62
17521;BME280;8878;-33.370;-70.552;2023-11-19T11:33:11;92141.78;;;14.93;66.98
17521;BME280;8878;-33.370;-70.552;2023-11-19T11:35:52;92144.78;;;15.05;66.65
17521;BME280;8878;-33.370;-70.552;2023-11-19T11:38:26;92145.88;;;15.17;67.27
17521;BME280;8878;-33.370;-70.552;2023-11-19T11:41:17;92144.41;;;15.25;66.70
17521;BME280;8878;-33.370;-70.552;2023-11-19T11:43:49;92151.22;;;15.31;67.69
17521;BME280;8878;-33.370;-70.552;2023-11-19T11:46:55;92147.59;;;15.41;67.63
17521;BME280;8878;-33.370;-70.552;2023-11-19T11:49:29;92148.28;;;15.46;66.61
17521;BME280;8878;-33.370;-70.552;2023-11-19T11:52:01;92141.50;;;15.54;66.71
17521;BME280;8878;-33.370;-70.552;2023-11-19T11:54:33;92146.16;;;15.62;67.37
17521;BME280;8878;-33.370;-70.552;2023-11-19T11:57:10;92148.41;;;15.69;67.60
17521;BME280;8878;-33.370;-70.552;2023-11-19T11:59:49;92147.22;;;15.75;65.43
17521;BME280;8878;-33.370;-70.552;2023-11-19T12:02:20;92146.81;;;15.81;64.18
17521;BME280;8878;-33.370;-70.552;2023-11-19T12:04:51;92146.00;;;15.94;64.04
17521;BME280;8878;-33.370;-70.552;2023-11-19T12:07:22;92140.78;;;16.03;61.46
17521;BME280;8878;-33.370;-70.552;2023-11-19T12:10:07;92145.56;;;16.15;61.62
17521;BME280;8878;-33.370;-70.552;2023-11-19T12:12:39;92144.19;;;16.17;62.81
17521;BME280;8878;-33.370;-70.552;2023-11-19T12:15:09;92143.19;;;16.27;62.76
17521;BME280;8878;-33.370;-70.552;2023-11-19T12:17:42;92143.25;;;16.35;62.20
17521;BME280;8878;-33.370;-70.552;2023-11-19T12:20:13;92138.41;;;16.37;60.89
17521;BME280;8878;-33.370;-70.552;2023-11-19T12:22:44;92144.13;;;16.44;60.47
17521;BME280;8878;-33.370;-70.552;2023-11-19T12:25:16;92150.59;;;16.52;60.46
17521;BME280;8878;-33.370;-70.552;2023-11-19T12:27:47;92147.81;;;16.57;58.73
17521;BME280;8878;-33.370;-70.552;2023-11-19T12:30:20;92158.88;;;16.64;59.61
17521;BME280;8878;-33.370;-70.552;2023-11-19T12:32:50;92146.41;;;16.73;59.82
17521;BME280;8878;-33.370;-70.552;2023-11-19T12:35:20;92148.50;;;16.85;58.46
17521;BME280;8878;-33.370;-70.552;2023-11-19T12:37:50;92147.91;;;16.88;57.02
17521;BME280;8878;-33.370;-70.552;2023-11-19T12:40:23;92149.84;;;16.96;57.31
17521;BME280;8878;-33.370;-70.552;2023-11-19T12:42:53;92148.00;;;17.05;58.87
17521;BME280;8878;-33.370;-70.552;2023-11-19T12:45:22;92140.06;;;17.14;57.10
17521;BME280;8878;-33.370;-70.552;2023-11-19T12:48:04;92149.03;;;17.18;55.07
17521;BME280;8878;-33.370;-70.552;2023-11-19T12:50:51;92146.25;;;17.23;55.46
17521;BME280;8878;-33.370;-70.552;2023-11-19T12:53:22;92147.53;;;17.34;55.72
17521;BME280;8878;-33.370;-70.552;2023-11-19T12:55:53;92151.22;;;17.47;56.92
17521;BME280;8878;-33.370;-70.552;2023-11-19T12:58:30;92140.75;;;17.59;56.26
17521;BME280;8878;-33.370;-70.552;2023-11-19T13:01:03;92146.09;;;17.59;54.56